max min mittel Außentemperatur Tagesdurchschnitt Außenfeuchte Tagesdurchschnitt Taupunkt Tagesdurchschnitt Windchill Tagesdurchschnitt Windgeschwindigkeit Tagesdurchschnitt Gesamtregen Mindesttemperatur Höchsttemperatur Höchste Windgeschwindigkeit  Tägliche Niederschlagsmenge 
                           
                           
  hPa  hPa hPa °C % °C °C km/h mm/m² °C °C km/h mm/m²
1.1.17 1026,9 1017,8 1021,0 -4,4 82,0 -7,1 -4,5 0,9 0,0 -9,6 3,8 19,8 0,0
2.1.17 1022,4 1016,5 1018,4 -3,3 91,3 -4,5 -4,5 4,6 0,0 -5,2 -1,2 25,5 0,0
3.1.17 1023,1 1014,1 1020,4 -1,6 91,8 -2,8 -4,1 7,6 8,3 -3,9 -0,6 41,4 8,3
4.1.17 1014,0 1006,7 1009,0 -0,6 91,5 -1,8 -4,4 10,7 8,6 -2,2 1,3 42,1 0,3
5.1.17 1033,7 1012,2 1023,0 -4,7 88,6 -6,3 -5,7 4,3 31,1 -8,5 -1,2 25,2 22,5
6.1.17 1038,2 1033,6 1036,6 -10,2 83,0 -12,6 -10,2 0,6 31,1 -18,5 -1,5 10,0 0,0
7.1.17 1036,6 1024,9 1030,8 -11,6 81,8 -14,1 -11,8 1,8 31,1 -19,9 -7,2 29,5 0,0
8.1.17 1029,2 1023,9 1026,7 -4,2 90,8 -5,5 -4,7 2,0 31,1 -7,7 -1,8 24,1 0,0
9.1.17 1028,5 1018,4 1024,7 -2,2 89,9 -3,6 -2,3 1,3 31,1 -3,0 -1,1 13,6 0,0
10.1.17 1018,2 1011,7 1013,6 -3,6 83,6 -6,0 -4,7 5,2 31,1 -6,4 -2,5 31,6 0,0
11.1.17 1015,0 1003,6 1010,0 -4,9 89,0 -6,3 -7,2 7,0 31,1 -8,7 1,1 29,1 0,0
12.1.17 1011,7 996,4 1007,6 1,2 88,7 -0,4 -0,8 7,0 31,1 0,4 2,3 33,8 0,0
13.1.17 1003,2 988,8 995,9 0,1 90,5 -1,2 -4,1 13,1 33,8 -2,1 2,6 79,5 2,7
14.1.17 1011,2 1000,0 1005,8 -1,2 90,2 -2,5 -2,5 5,3 33,8 -2,6 1,3 32,7 0,0
15.1.17 1018,7 1011,0 1015,4 -2,5 88,8 -4,0 -3,2 3,9 33,8 -5,2 0,7 29,5 0,0
16.1.17 1027,4 1018,2 1022,2 -4,1 89,4 -5,5 -4,4 2,3 33,8 -6,2 -1,8 25,2 0,0
17.1.17 1034,9 1027,2 1031,5 -4,9 89,3 -6,3 -5,4 2,7 33,8 -6,9 -1,0 21,2 0,0
18.1.17 1036,9 1034,6 1035,7 -7,7 85,2 -9,7 -7,8 1,5 33,8 -15,6 -1,7 25,5 0,0
19.1.17 1035,8 1034,3 1035,0 -10,9 79,6 -13,8 -10,9 0,1 33,8 -17,7 0,8 10,0 0,0
20.1.17 1035,0 1032,1 1033,3 -7,7 75,8 -11,5 -7,7 0,1 34,2 -14,8 5,9 8,2 0,4
21.1.17 1032,0 1028,8 1030,2 -5,5 74,5 -9,6 -5,5 0,7 35,1 -12,1 5,9 16,9 0,9
22.1.17 1028,6 1023,9 1025,9 -5,2 72,6 -9,5 -5,8 3,0 35,1 -11,5 1,3 21,2 0,0
23.1.17 1024,3 1022,2 1023,3 -7,0 77,6 -10,3 -7,1 0,7 35,1 -12,1 2,8 13,3 0,0
24.1.17 1029,0 1023,1 1025,8 -7,6 87,3 -9,3 -7,6 0,7 35,1 -9,7 -5,6 10,0 0,0
25.1.17 1029,9 1027,8 1028,8 -3,4 84,1 -5,7 -4,6 4,0 35,1 -5,6 -1,6 26,2 0,0
26.1.17 1029,2 1024,6 1026,7 -2,7 78,0 -6,0 -5,7 8,4 35,1 -5,1 0,9 35,2 0,0
27.1.17 1024,7 1021,1 1023,1 -4,1 76,8 -7,6 -6,1 6,5 35,1 -7,1 1,3 29,1 0,0
28.1.17 1022,6 1019,5 1020,7 -6,7 83,1 -9,0 -8,0 5,3 35,1 -9,9 -1,8 22,6 0,0
29.1.17 1024,0 1021,9 1022,9 -3,9 77,2 -7,4 -5,0 4,2 35,5 -10,1 6,2 26,6 0,4
30.1.17 1022,1 1011,5 1016,3 -1,4 85,3 -3,5 -3,3 6,6 35,5 -5,4 1,7 28,2 0,0
31.1.17 1018,7 1011,4 1014,4 -0,5 92,4 -1,5 -0,5 0,5 36,9 -1,9 1,6 18,0 1,4
1.2.17 1019,9 1016,9 1018,5 -1,0 90,7 -2,3 -1,0 0,0 37,1 -2,4 0,4 0,0 0,2
2.2.17 1017,3 1010,5 1013,9 -0,0 92,9 -1,1 -0,5 2,7 40,2 -2,7 3,6 24,1 3,1
3.2.17 1010,6 1007,7 1009,0 2,1 92,2 0,9 1,2 4,5 45,2 0,6 4,4 21,6 5,0
4.2.17 1007,9 1003,1 1005,4 1,5 94,3 0,6 1,1 3,1 45,2 0,4 2,8 23,4 0,0
5.2.17 1007,7 1003,0 1005,2 2,2 87,9 0,3 2,0 1,6 46,2 -3,4 9,5 23,0 1,0
6.2.17 1019,4 1007,3 1014,8 -0,4 92,9 -1,4 -0,5 0,8 46,2 -3,7 2,8 15,4 0,0
7.2.17 1019,6 1017,9 1018,8 -0,9 93,6 -1,8 -0,9 0,6 46,2 -1,6 0,3 24,4 0,0
8.2.17 1027,1 1019,1 1022,9 -2,2 87,4 -3,9 -2,4 2,0 46,2 -4,5 0,9 19,8 0,0
9.2.17 1027,1 1022,9 1025,6 -3,5 86,3 -5,5 -4,3 3,3 46,2 -4,7 -1,9 27,3 0,0
10.2.17 1022,8 1020,8 1021,4 -1,7 86,8 -3,5 -3,2 6,0 46,2 -2,7 -0,7 29,8 0,0
11.2.17 1023,9 1020,8 1022,1 -1,0 89,5 -2,5 -3,4 7,4 46,9 -2,1 0,4 33,8 0,7
12.2.17 1031,2 1023,0 1027,5 -1,5 91,4 -2,7 -4,2 8,2 46,9 -2,2 -0,4 33,1 0,0
13.2.17 1031,8 1030,0 1030,9 1,1 69,5 -4,2 -0,4 5,8 46,9 -2,5 9,5 32,4 0,0
14.2.17 1034,2 1028,9 1031,5 1,4 62,2 -5,4 0,4 4,0 46,9 -5,3 11,4 29,8 0,0
15.2.17 1035,0 1033,1 1033,9 2,0 64,5 -4,6 1,9 1,2 46,9 -5,1 15,3 16,9 0,0
16.2.17 1033,0 1026,2 1030,4 2,6 74,8 -1,7 2,5 0,7 46,9 -4,9 14,6 20,5 0,0
17.2.17 1026,2 1022,9 1023,9 3,4 88,6 1,6 3,3 1,5 52,2 1,6 8,4 23,4 5,3
18.2.17 1026,4 1024,1 1025,3 2,6 91,5 1,3 2,6 0,7 55,3 0,9 4,5 14,0 3,1
19.2.17 1025,5 1020,4 1022,5 1,9 84,9 -0,5 1,5 1,9 55,9 -3,6 8,4 15,8 0,6
20.2.17 1020,7 1013,8 1018,0 4,1 91,6 2,8 3,3 3,6 55,9 2,2 6,8 33,1 0,0
21.2.17 1015,5 1011,6 1013,4 6,1 89,9 4,5 4,9 5,3 60,7 1,1 9,5 37,4 4,8
22.2.17 1014,6 1006,3 1008,8 6,7 93,7 5,7 5,0 7,1 72,9 1,1 8,3 46,0 12,2
23.2.17 1006,7 994,9 1001,7 7,6 83,8 4,8 5,5 8,8 79,9 4,9 12,4 56,8 7,0
24.2.17 1018,1 996,5 1007,8 2,2 73,0 -2,2 -1,4 13,1 81,3 -3,2 5,7 74,1 1,4
25.2.17 1022,7 1017,6 1020,3 1,5 73,7 -2,9 1,1 2,3 81,3 -5,9 9,9 25,5 0,0
26.2.17 1017,4 1013,6 1015,1 5,8 58,8 -1,8 5,3 3,4 81,3 0,8 11,8 32,4 0,0
27.2.17 1013,8 998,4 1007,4 7,2 64,8 0,8 5,9 6,2 81,3 0,6 14,1 31,3 0,0
28.2.17 1000,2 994,9 997,8 3,9 82,6 1,1 1,6 8,3 87,0 1,5 8,3 42,8 5,7
1.3.17 1006,8 998,5 1003,6 3,3 84,8 0,9 2,0 5,8 90,1 0,9 8,1 46,4 3,1
2.3.17 1016,8 1002,4 1008,7 5,2 75,7 1,0 2,7 9,0 95,8 2,3 8,4 66,2 5,7
3.3.17 1017,4 1005,2 1012,4 4,1 70,5 -1,1 3,1 4,2 97,0 -1,7 9,3 24,8 1,2
4.3.17 1005,1 995,1 999,5 9,0 59,4 1,3 7,4 7,6 97,0 3,9 16,9 33,8 0,0
5.3.17 1006,7 999,2 1003,7 6,0 76,3 2,1 5,3 4,2 97,3 3,7 9,8 15,1 0,3
6.3.17 1003,5 1000,4 1001,9 3,3 89,3 1,7 2,9 3,1 100,5 1,3 5,1 25,5 3,2
7.3.17 1019,9 1003,5 1011,6 2,4 91,1 1,1 2,3 1,6 107,6 0,3 4,6 20,8 7,1
8.3.17 1022,8 1014,9 1019,7 4,0 85,1 1,6 2,8 5,0 112,7 1,5 6,8 28,0 5,1
9.3.17 1019,0 1015,0 1017,2 6,6 85,7 4,3 6,2 3,2 117,2 3,9 10,9 22,6 4,5
10.3.17 1026,8 1017,5 1023,4 4,9 72,1 0,1 3,9 5,0 118,3 -1,1 9,9 34,9 1,1
11.3.17 1026,9 1021,9 1024,1 3,6 70,6 -1,9 3,6 0,4 118,3 -2,9 14,1 15,1 0,0
12.3.17 1021,9 1018,9 1020,2 2,3 70,5 -2,8 1,3 4,3 118,3 -3,4 8,6 28,4 0,0
13.3.17 1027,8 1021,1 1024,4 4,1 66,1 -2,1 3,8 2,4 118,3 -2,7 12,8 19,8 0,0
14.3.17 1030,7 1027,6 1029,3 5,1 75,7 1,0 5,0 1,3 118,3 -1,6 12,6 21,9 0,0
15.3.17 1030,1 1027,9 1029,0 6,7 72,6 1,7 6,6 1,7 118,3 -0,4 15,7 31,6 0,0
16.3.17 1028,7 1019,0 1024,4 7,4 64,6 0,1 7,4 1,1 118,3 -0,7 19,4 20,1 0,0
17.3.17 1019,0 1011,1 1014,2 6,2 72,8 1,4 5,2 4,4 118,3 -0,8 13,9 33,8 0,0
18.3.17 1010,9 1003,9 1006,0 5,5 89,5 3,8 3,0 9,0 142,3 4,1 7,0 44,6 24,0
19.3.17 1011,0 1008,0 1009,4 7,7 91,6 6,4 6,5 5,2 148,0 4,9 9,9 35,6 5,7
20.3.17 1012,1 1009,2 1010,7 9,1 78,7 5,5 8,1 5,1 148,0 7,5 12,6 33,8 0,0
21.3.17 1014,8 1009,1 1011,0 7,5 81,6 4,5 7,0 3,7 154,7 2,4 11,0 33,1 6,7
22.3.17 1016,0 1013,8 1015,1 3,8 88,0 1,9 2,5 4,9 155,8 1,9 5,8 30,9 1,1
23.3.17 1021,9 1014,8 1017,4 6,3 86,4 4,1 6,2 2,1 155,8 4,1 11,1 16,9 0,0
24.3.17 1030,3 1021,8 1026,8 7,0 77,4 3,0 6,6 3,5 155,8 0,8 14,3 30,2 0,0
25.3.17 1030,0 1023,6 1027,2 6,0 67,3 -0,3 5,8 2,0 155,8 -1,7 14,8 23,4 0,0
26.3.17 1027,1 1022,4 1024,4 5,0 63,2 -2,3 4,1 3,9 155,8 -1,7 12,8 33,8 0,0
27.3.17 1027,0 1023,9 1025,7 7,0 56,5 -2,4 6,5 3,1 155,8 -2,7 16,8 29,8 0,0
28.3.17 1024,6 1022,9 1023,8 10,1 56,5 0,2 9,9 1,9 155,8 -0,7 22,2 25,9 0,0
29.3.17 1026,3 1023,6 1024,7 10,5 64,7 3,7 9,8 4,7 155,8 2,2 17,9 38,5 0,0
30.3.17 1027,7 1025,0 1026,4 13,4 64,7 6,4 13,3 1,1 155,8 6,9 20,2 22,0 0,0
31.3.17 1025,0 1015,8 1019,9 13,9 63,2 5,9 13,7 2,2 155,8 5,2 24,3 20,8 0,0
1.4.17 1015,9 1010,3 1012,8 12,9 69,9 6,7 12,7 2,5 160,9 4,2 22,2 23,0 5,1
2.4.17 1023,3 1012,2 1017,8 12,1 77,7 7,9 11,9 2,1 161,3 6,1 20,1 29,4 0,4
3.4.17 1025,2 1022,8 1024,2 9,9 80,6 6,6 9,7 2,2 161,3 6,7 14,6 19,4 0,0
4.4.17 1024,6 1022,7 1023,3 6,7 84,4 4,2 6,7 1,0 162,5 3,3 9,8 18,3 1,2
5.4.17 1023,5 1020,0 1022,0 7,4 78,2 3,4 7,3 1,4 162,5 1,3 15,3 21,6 0,0
6.4.17 1024,2 1020,3 1022,5 7,0 63,3 0,1 6,6 3,2 162,9 2,8 12,9 26,2 0,4
7.4.17 1023,5 1020,2 1021,7 7,9 70,5 2,7 6,9 5,1 162,9 5,1 11,4 33,1 0,0
8.4.17 1023,2 1020,2 1021,7 8,1 71,7 3,2 7,3 5,0 162,9 4,3 11,9 39,4 0,0
9.4.17 1025,7 1021,2 1023,2 13,0 62,9 5,5 12,8 2,5 162,9 4,3 22,6 20,5 0,0
10.4.17 1022,3 1016,3 1018,9 12,1 66,3 5,0 11,7 3,8 164,2 1,9 23,1 37,4 1,3
11.4.17 1024,1 1019,9 1022,6 8,2 60,5 0,7 7,9 2,7 164,2 5,2 14,1 27,7 0,0
12.4.17 1023,1 1011,0 1016,7 9,4 59,5 1,8 8,8 4,1 164,2 4,8 14,2 37,8 0,0
13.4.17 1014,7 1010,0 1012,3 9,3 66,7 3,3 7,9 6,6 164,2 6,9 13,5 35,2 0,0
14.4.17 1016,0 1014,2 1015,1 9,0 60,8 1,4 8,5 3,4 164,2 2,3 14,5 31,6 0,0
15.4.17 1015,4 1012,2 1013,5 8,4 71,0 3,4 7,0 6,3 164,2 5,9 12,2 38,9 0,0
16.4.17 1018,2 1014,9 1016,6 5,7 72,0 0,9 4,6 5,1 166,9 2,2 11,5 36,7 2,7
17.4.17 1018,2 1014,1 1015,8 3,8 86,1 1,7 3,6 1,7 171,8 1,5 7,1 22,6 4,9
18.4.17 1025,5 1015,7 1020,1 2,1 87,9 0,3 1,7 2,5 177,1 0,4 5,8 28,4 5,3
19.4.17 1032,6 1025,5 1028,9 0,9 80,2 -2,3 0,3 3,4 179,5 -0,8 3,8 29,1 2,4
20.4.17 1034,0 1031,7 1032,8 1,7 71,5 -3,2 1,5 1,3 179,5 -2,2 8,3 17,2 0,0
21.4.17 1032,5 1023,5 1028,4 6,0 62,5 -1,3 5,1 4,5 179,5 -3,5 14,3 34,9 0,0
22.4.17 1023,6 1019,5 1020,7 6,6 73,8 2,2 5,7 5,3 183,4 3,9 8,4 30,9 3,9
23.4.17 1022,7 1020,0 1021,5 4,8 63,3 -1,6 4,1 4,1 183,4 1,6 8,2 29,1 0,0
24.4.17 1022,5 1010,0 1017,2 7,1 59,8 -0,9 6,4 3,7 183,4 -2,1 14,4 33,1 0,0
25.4.17 1010,1 1005,2 1007,6 7,3 66,2 1,2 6,6 3,7 183,4 1,9 12,9 35,2 0,0
26.4.17 1013,4 1009,1 1011,2 3,2 84,5 0,8 3,2 1,3 189,8 0,9 6,4 18,7 6,4
27.4.17 1015,0 1012,2 1014,0 4,3 79,0 0,8 4,3 0,6 189,8 0,9 8,1 15,6 0,0
28.4.17 1015,7 1011,5 1013,0 5,9 73,1 1,2 5,8 1,4 189,8 1,3 10,8 21,9 0,0
29.4.17 1018,8 1015,4 1017,1 6,4 71,3 1,3 6,1 2,1 189,8 0,1 12,3 20,8 0,0
30.4.17 1018,8 1011,3 1016,1 9,0 61,0 1,5 7,1 8,3 189,8 3,8 13,9 37,4 0,0
1.5.17 1013,1 1009,2 1010,9 10,4 64,3 3,7 9,2 5,5 189,8 4,6 16,1 31,3 0,0
2.5.17 1017,7 1010,5 1013,1 6,5 88,3 4,7 5,5 4,8 195,8 4,6 7,6 25,2 6,0
3.5.17 1019,9 1017,3 1018,6 10,4 71,0 4,7 9,7 4,5 195,8 1,6 17,1 30,6 0,0
4.5.17 1017,7 1015,1 1016,2 9,1 87,8 7,1 8,9 2,3 197,7 6,6 12,6 21,9 1,9
5.5.17 1020,0 1016,5 1018,6 8,3 89,3 6,6 8,3 0,4 198,9 6,2 11,8 12,9 1,2
6.5.17 1019,3 1010,2 1014,1 11,6 72,8 6,3 11,2 3,2 198,9 3,4 18,9 26,2 0,0
7.5.17 1014,2 1010,9 1012,8 11,6 80,7 8,1 11,6 0,9 198,9 5,2 20,7 16,9 0,0
8.5.17 1018,4 1013,2 1015,0 10,3 79,7 6,7 10,1 1,9 198,9 4,9 15,3 24,8 0,0
9.5.17 1018,8 1015,4 1017,6 5,5 71,9 0,5 5,5 1,2 201,5 0,2 9,3 18,7 2,6
10.5.17 1015,7 1007,4 1011,0 8,3 59,7 -0,1 8,1 2,3 201,5 -1,6 17,3 27,3 0,0
11.5.17 1007,8 1002,3 1005,2 12,9 56,4 3,5 12,4 4,6 201,5 0,5 22,8 23,4 0,0
12.5.17 1008,5 1002,2 1005,0 14,1 71,0 8,8 13,8 2,6 201,5 9,5 19,6 31,6 0,0
13.5.17 1017,2 1008,8 1012,7 14,9 70,5 9,0 14,8 1,4 201,5 5,9 23,1 26,2 0,0
14.5.17 1025,3 1017,5 1021,6 13,3 82,4 10,2 13,2 0,9 205,8 8,4 20,9 20,8 4,3
15.5.17 1031,0 1019,8 1024,2 12,6 83,7 9,8 12,6 1,1 205,8 5,6 22,3 27,3 0,0
16.5.17 1031,2 1028,2 1030,0 16,7 59,0 7,0 16,6 1,2 205,8 4,9 25,9 18,0 0,0
17.5.17 1028,9 1019,2 1024,6 20,0 53,4 9,9 19,7 4,1 205,8 14,9 25,4 29,1 0,0
18.5.17 1019,1 1013,5 1015,7 21,0 56,0 11,1 20,8 3,6 205,8 12,7 30,8 24,4 0,0
19.5.17 1017,0 1008,9 1011,8 18,5 70,8 12,3 17,9 4,9 226,6 10,1 27,9 37,4 20,8
20.5.17 1026,3 1016,6 1021,7 13,2 71,0 7,5 12,5 4,3 236,8 8,9 19,1 20,8 10,2
21.5.17 1028,0 1024,9 1026,6 13,7 64,3 6,3 13,6 1,7 236,8 5,6 21,6 26,2 0,0
22.5.17 1025,1 1018,9 1021,6 14,9 60,8 6,5 14,8 1,6 236,8 5,6 23,1 24,1 0,0
23.5.17 1023,0 1018,1 1020,3 15,8 60,1 7,3 15,7 1,8 236,8 5,3 23,9 28,7 0,0
24.5.17 1023,5 1019,7 1021,9 14,9 58,7 6,6 14,6 3,3 236,8 10,4 20,4 33,8 0,0
25.5.17 1023,8 1022,1 1023,0 15,0 64,6 7,9 14,9 1,4 236,8 9,5 22,0 20,8 0,0
26.5.17 1024,0 1022,2 1023,1 16,8 65,0 9,5 16,7 1,6 236,8 7,2 25,3 25,2 0,0
27.5.17 1024,2 1022,8 1023,5 18,8 58,1 9,3 18,6 3,1 236,8 8,4 26,4 28,4 0,0
28.5.17 1023,9 1020,5 1022,6 21,9 49,8 10,2 21,8 3,1 236,8 13,5 30,4 23,7 0,0
29.5.17 1020,4 1016,5 1018,1 23,5 52,9 12,3 23,4 1,3 236,8 12,2 31,9 21,6 0,0
30.5.17 1019,6 1015,0 1016,9 21,1 67,2 14,4 20,9 2,7 239,7 15,9 28,0 31,5 2,9
31.5.17 1023,1 1019,1 1021,7 18,8 66,3 11,9 18,7 1,7 239,7 12,7 24,6 20,8 0,0
1.6.17 1023,8 1022,0 1023,0 17,8 61,7 9,5 17,8 0,9 239,7 8,1 26,2 18,0 0,0
2.6.17 1022,2 1019,0 1020,4 20,1 55,4 9,6 20,0 1,0 239,7 8,9 28,7 16,5 0,0
3.6.17 1018,9 1013,0 1016,5 20,2 62,6 12,3 20,0 3,5 246,7 14,9 28,1 29,8 7,0
4.6.17 1018,0 1010,5 1014,1 15,5 83,0 12,3 15,3 2,1 269,8 10,4 20,2 29,5 23,1
5.6.17 1017,9 1013,0 1016,2 13,8 80,5 10,2 13,7 1,7 274,1 7,2 20,9 20,1 4,3
6.6.17 1012,8 1006,0 1008,5 14,3 82,5 11,1 13,9 3,7 277,8 9,2 21,8 28,0 3,7
7.6.17 1021,0 1011,0 1015,7 11,7 70,5 6,1 10,7 5,7 277,8 7,9 16,4 42,8 0,0
8.6.17 1022,0 1019,0 1020,8 14,9 61,5 6,8 14,7 3,2 277,8 6,3 21,7 29,5 0,0
9.6.17 1019,8 1014,9 1017,0 17,9 59,3 9,1 17,5 4,9 277,8 10,3 26,5 35,6 0,0
10.6.17 1024,2 1018,4 1022,3 16,6 66,2 9,5 16,4 3,0 277,8 8,4 22,8 29,8 0,0
11.6.17 1024,1 1016,8 1021,6 20,5 55,8 10,4 20,4 2,6 277,8 9,1 27,6 18,3 0,0
12.6.17 1018,9 1014,8 1016,5 21,4 52,4 11,0 20,9 5,8 277,8 14,9 25,4 37,0 0,0
13.6.17 1021,0 1018,8 1019,8 16,0 62,2 8,4 15,9 1,5 277,8 10,4 22,3 19,4 0,0
14.6.17 1021,8 1019,8 1021,0 17,6 59,3 8,5 17,6 1,1 277,8 6,8 26,2 20,3 0,0
15.6.17 1020,1 1016,5 1018,9 20,6 57,1 11,0 20,5 3,3 277,8 9,4 29,4 27,7 0,0
16.6.17 1023,0 1015,3 1018,8 18,5 64,6 11,4 18,3 3,0 277,8 14,2 23,4 32,4 0,0
17.6.17 1026,7 1022,8 1024,5 15,7 61,2 7,9 15,4 3,1 277,8 11,4 21,8 27,7 0,0
18.6.17 1027,6 1026,2 1026,8 19,3 59,7 10,2 19,3 0,8 277,8 10,5 27,2 19,0 0,0
19.6.17 1026,4 1021,2 1024,2 21,3 53,8 10,4 21,2 2,7 277,8 10,2 31,9 25,5 0,0
20.6.17 1021,1 1019,1 1019,6 23,9 51,7 12,2 23,9 2,2 277,8 12,3 33,2 27,3 0,0
21.6.17 1020,6 1019,1 1020,0 23,4 57,9 13,8 23,4 1,0 277,8 15,3 30,9 20,1 0,0
22.6.17 1018,9 1012,5 1017,1 23,3 59,4 13,8 23,1 4,5 278,6 13,0 32,8 45,3 0,8
23.6.17 1018,6 1012,7 1016,4 20,3 70,2 14,2 19,7 5,3 286,2 15,8 25,8 34,2 7,6
24.6.17 1018,4 1016,4 1017,7 19,9 58,7 10,8 19,5 4,9 286,2 11,8 26,3 37,0 0,0
25.6.17 1017,3 1014,7 1015,6 18,8 60,8 10,6 18,3 5,2 286,2 10,7 25,1 37,8 0,0
26.6.17 1016,0 1014,3 1015,0 19,3 70,3 13,4 18,8 4,7 291,8 14,4 26,2 36,0 5,6
27.6.17 1015,4 1008,8 1012,9 16,1 82,4 13,0 16,0 1,8 292,4 11,6 21,1 21,9 0,6
28.6.17 1008,8 1000,4 1004,2 19,1 76,1 14,5 18,9 3,0 295,0 13,1 25,3 26,6 2,6
29.6.17 1004,3 997,4 1000,1 15,0 89,7 13,3 14,7 2,7 308,0 13,4 16,3 29,5 13,0
30.6.17 1009,9 1004,2 1007,6 16,3 70,9 10,4 15,3 6,7 308,0 11,3 21,6 38,8 0,0
1.7.17 1014,2 1009,3 1011,5 14,5 78,0 10,6 13,7 5,0 308,0 9,4 19,1 41,4 0,0
2.7.17 1021,8 1014,3 1018,3 16,7 75,3 11,9 15,9 6,1 311,2 13,2 22,3 31,3 3,2
3.7.17 1024,1 1021,4 1022,6 17,8 66,5 10,7 17,4 4,2 312,0 12,4 23,6 35,2 0,8
4.7.17 1018,0 1010,5 1014,1 15,5 83,0 12,3 15,3 1,9 312,0 10,4 20,2 19,0 0,0
5.7.17 1017,9 1013,0 1016,2 16,1 80,5 10,2 13,7 1,8 312,0 9,4 27,8 31,6 0,0
6.7.17 1022,0 1020,4 1021,1 23,1 58,3 13,4 23,1 2,0 312,0 14,1 31,3 29,5 0,0
7.7.17 1021,1 1017,1 1019,4 22,3 68,6 15,9 21,8 5,8 315,7 16,5 28,6 44,6 3,7
8.7.17 1019,8 1018,1 1018,8 22,5 63,4 14,4 22,3 4,2 315,7 14,5 29,7 41,4 0,0
9.7.17 1018,6 1013,9 1016,7 23,9 59,9 14,9 23,8 2,5 315,7 16,3 31,3 25,2 0,0
10.7.17 1014,3 1012,0 1013,0 20,4 80,4 16,7 20,2 2,8 331,9 15,4 25,8 38,8 16,2
11.7.17 1017,2 1012,7 1015,2 18,1 82,2 14,8 17,8 2,6 344,6 14,5 22,4 31,3 12,7
12.7.17 1017,7 1010,9 1014,2 16,1 82,7 13,0 15,7 3,5 358,7 12,8 22,3 33,1 14,1
13.7.17 1024,1 1017,9 1022,2 14,7 67,3 8,1 14,6 2,1 359,0 8,4 21,5 33,8 0,3
14.7.17 1021,3 1016,9 1018,5 14,0 71,2 8,4 13,7 2,4 362,7 7,9 20,9 33,1 3,7
15.7.17 1025,6 1018,1 1022,0 14,0 79,3 10,2 13,8 2,4 374,2 10,9 20,2 30,9 11,5
16.7.17 1026,8 1024,2 1025,6 16,6 66,1 9,5 16,3 2,5 374,2 6,4 24,3 25,2 0,0
17.7.17 1024,4 1023,1 1023,8 19,6 73,8 14,6 19,5 1,1 374,2 16,0 26,9 21,6 0,0
18.7.17 1023,9 1020,0 1022,4 20,3 75,9 15,4 20,3 1,4 374,2 14,2 28,3 25,2 0,0
19.7.17 1019,9 1015,0 1017,7 23,5 61,5 14,6 23,4 2,9 374,2 13,9 31,8 19,0 0,0
20.7.17 1018,4 1013,3 1015,8 20,3 78,4 16,2 20,0 3,6 397,0 16,1 26,4 30,6 22,8
21.7.17 1018,3 1015,4 1017,2 21,6 66,6 14,2 21,5 1,4 397,0 12,9 30,1 26,6 0,0
22.7.17 1024,4 1014,1 1021,1 19,8 73,3 14,7 19,8 1,2 397,0 16,4 26,9 21,6 0,0
23.7.17 1018,7 1015,9 1017,6 19,1 67,7 12,5 18,6 4,2 397,0 13,3 24,3 37,8 0,0
24.7.17 1017,8 1009,1 1011,8 14,2 79,2 10,5 13,9 3,0 418,2 10,0 20,8 24,1 21,2
25.7.17 1009,6 1005,5 1007,1 12,6 88,4 10,7 12,1 4,0 424,6 11,4 16,7 44,2 6,4
26.7.17 1009,4 1001,1 1004,4 12,7 95,1 11,9 12,3 3,8 432,3 11,4 14,1 26,6 7,7
27.7.17 1009,9 1008,7 1009,4 14,8 87,7 12,7 14,6 2,3 432,3 11,8 17,2 16,9 0,0
28.7.17 1016,1 1008,7 1012,2 16,9 64,2 9,3 16,1 5,7 434,4 14,4 19,9 28,8 2,1
29.7.17 1024,9 1017,6 1023,8 18,7 55,8 8,8 18,3 3,4 434,4 12,8 25,2 14,4 0,0
30.7.17 1024,5 1013,4 1016,3 23,2 59,2 14,1 22,8 5,0 434,4 14,1 30,9 18,7 0,0
31.7.17 1019,9 1015,7 1017,8 21,0 76,5 16,2 20,8 2,4 448,3 15,6 31,2 17,2 13,9
1.8.17 1021,3 1016,0 1017,8 23,9 69,1 17,0 23,6 3,6 461,4 15,8 35,6 21,6 13,1
2.8.17 1022,1 1018,8 1020,5 21,3 79,8 17,4 20,7 2,5 461,4 17,3 27,0 14,0 0,0
3.8.17 1019,9 1014,8 1016,9 19,9 86,4 17,5 19,6 2,3 465,9 15,4 24,8 16,8 4,5
4.8.17 1018,0 1015,1 1015,8 19,6 74,4 14,6 19,0 4,4 465,9 14,9 24,3 20,8 0,0
5.8.17 1018,5 1015,4 1017,2 19,0 75,1 14,0 18,7 3,9 466,7 11,9 26,8 17,2 0,8
6.8.17 1024,8 1018,7 1022,7 16,9 71,5 11,2 16,8 1,9 466,7 10,9 22,3 12,9 0,0
7.8.17 1024,8 1018,9 1022,0 16,6 62,8 8,6 16,4 3,4 466,7 6,9 25,8 15,1 0,0
8.8.17 1018,9 1012,3 1014,8 18,9 66,4 12,0 18,3 5,7 468,4 9,3 28,9 25,5 1,7
9.8.17 1019,4 1016,5 1018,1 20,0 69,5 13,7 19,9 2,2 473,8 15,1 26,5 16,9 5,4
10.8.17 1019,9 1016,6 1018,6 15,1 90,7 13,5 14,5 3,7 496,4 14,1 17,0 15,1 22,6
11.8.17 1017,4 1014,1 1015,9 14,0 93,0 12,9 13,8 2,9 497,2 12,7 16,1 14,4 0,8
12.8.17 1020,7 1015,9 1018,4 13,0 86,0 10,6 12,0 5,7 497,7 9,6 17,3 14,7 0,5
13.8.17 1024,2 1019,7 1021,7 15,9 87,7 13,8 15,6 2,8 498,8 13,4 21,7 20,8 1,1
14.8.17 1024,5 1022,1 1023,5 18,0 72,4 12,4 17,1 2,4 498,8 9,7 26,4 11,8 0,0
15.8.17 1022,8 1019,7 1021,1 20,2 68,9 13,9 20,0 3,2 507,1 14,6 29,4 16,2 8,3
16.8.17 1023,9 1020,8 1022,8 19,2 78,4 15,0 18,3 3,4 509,2 14,4 26,6 18,0 2,1
17.8.17 1023,5 1019,4 1021,0 19,5 76,1 14,8 19,3 2,7 509,2 13,1 26,0 15,8 0,0
18.8.17 1020,4 1012,1 1017,3 21,3 73,7 16,0 21,1 3,5 531,2 15,1 28,5 20,5 22,0
19.8.17 1022,2 1016,8 1019,6 15,8 74,2 10,7 15,3 4,7 531,2 9,4 20,3 16,5 0,0
20.8.17 1024,9 1021,7 1023,3 12,3 74,4 7,6 11,8 3,4 531,2 5,8 18,3 19,8 0,0
21.8.17 1025,1 1023,4 1024,4 13,0 72,5 7,9 12,7 2,5 531,2 6,8 19,6 19,4 0,0
22.8.17 1024,5 1021,0 1022,7 13,0 70,9 7,3 13,0 1,6 531,2 4,4 21,1 13,3 0,0
23.8.17 1021,7 1018,9 1020,3 14,6 67,3 7,7 14,6 1,0 531,2 4,2 25,6 10,4 0,0
24.8.17 1020,7 1017,6 1018,7 17,5 72,1 12,2 17,2 3,7 531,2 9,8 23,9 16,9 0,0
25.8.17 1021,8 1019,5 1020,5 18,3 73,5 13,0 18,2 1,7 531,2 9,9 26,9 15,4 0,0
26.8.17 1020,6 1017,1 1018,8 21,1 79,1 16,9 21,0 3,1 547,0 15,8 28,6 16,2 15,8
27.8.17 1021,7 1017,6 1019,3 19,1 74,9 14,2 19,1 1,0 547,0 13,6 25,6 11,1 0,0
28.8.17 1022,1 1020,6 1021,5 17,8 66,9 10,9 17,7 1,7 547,0 9,9 26,4 13,6 0,0
29.8.17 1021,7 1017,2 1019,3 18,1 69,6 11,9 18,0 1,7 547,0 9,5 27,4 13,3 0,0
30.8.17 1017,7 1012,2 1015,2 21,0 63,5 13,0 20,8 4,0 547,0 13,5 28,6 20,5 0,0
31.8.17 1021,4 1012,3 1016,6 17,8 87,1 15,5 17,6 2,3 589,9 13,7 22,2 23,7 42,9
1.9.17 1021,4 1019,6 1020,6 12,1 90,5 10,5 11,9 2,4 596,1 7,9 13,7 12,6 6,2
2.9.17 1020,0 1018,3 1019,2 10,7 85,8 8,3 10,7 1,2 596,1 6,8 17,1 10,8 0,0
3.9.17 1018,9 1016,6 1017,8 11,0 80,9 7,6 11,0 0,9 597,0 6,1 18,5 9,7 0,9
4.9.17 1021,0 1016,8 1018,3 11,2 73,4 6,1 11,0 2,5 597,0 2,5 19,6 15,4 0,0
5.9.17 1021,8 1019,8 1020,8 13,0 77,9 9,0 12,8 2,5 597,0 3,5 20,7 13,3 0,0
6.9.17 1019,6 1014,2 1016,6 15,6 79,7 12,0 14,8 6,0 597,2 11,7 21,3 28,4 0,2
7.9.17 1017,6 1016,1 1016,9 12,1 76,8 8,1 11,0 6,2 597,2 7,2 16,4 30,2 0,0
8.9.17 1016,4 1006,9 1011,9 11,8 79,1 8,1 11,3 3,4 597,2 5,9 15,8 25,5 0,0
9.9.17 1006,8 1002,0 1004,2 12,5 83,9 9,8 12,0 3,9 597,2 9,9 14,9 15,8 0,0
10.9.17 1008,4 1005,3 1007,4 13,2 80,6 9,7 13,0 2,7 597,7 10,2 17,2 15,1 0,5
11.9.17 1008,0 1003,5 1004,9 12,5 79,0 8,7 11,6 5,6 597,7 8,3 18,1 19,8 0,0
12.9.17 1014,1 1006,4 1009,4 11,1 81,7 8,0 10,4 4,6 603,9 9,0 15,6 17,6 6,2
13.9.17 1014,1 1005,6 1008,7 11,6 86,0 9,3 9,7 9,1 603,9 8,9 16,3 31,6 0,0
14.9.17 1010,8 1004,1 1006,8 9,4 91,0 8,0 7,3 7,7 631,8 7,0 11,0 26,6 27,9
15.9.17 1015,5 1010,7 1013,8 9,9 84,3 7,3 8,5 5,8 631,8 5,6 15,3 22,6 0,0
16.9.17 1015,0 1012,0 1013,3 7,4 86,9 5,3 7,5 0,9 631,8 2,4 14,0 11,8 0,0
17.9.17 1015,2 1013,0 1014,2 8,2 84,8 5,7 8,1 0,6 632,8 1,6 15,8 6,4 1,0
18.9.17 1018,1 1014,5 1016,2 7,8 83,8 5,0 7,6 2,2 633,7 1,6 14,8 16,9 0,9
19.9.17 1019,7 1016,8 1017,7 8,4 81,3 5,2 8,3 1,4 633,7 2,9 15,4 11,1 0,0
20.9.17 1022,5 1019,2 1020,8 8,9 85,9 6,6 8,7 1,7 637,1 4,9 12,9 16,9 3,4
21.9.17 1022,9 1021,4 1022,0 10,9 85,9 8,5 10,9 0,3 638,1 7,6 16,8 6,8 1,0
22.9.17 1023,7 1020,9 1021,8 10,9 83,6 8,1 10,9 0,6 638,1 6,1 16,8 8,2 0,0
23.9.17 1023,9 1022,0 1023,0 10,8 79,3 7,0 11,0 1,1 638,1 2,9 19,6 10,8 0,0
24.9.17 1023,4 1021,7 1022,6 10,7 80,7 7,3 10,6 0,9 638,1 5,2 15,8 10,0 0,0
25.9.17 1023,0 1021,1 1021,8 11,2 88,0 9,2 11,3 0,4 639,3 8,6 15,0 5,4 1,2
26.9.17 1025,0 1022,0 1023,4 10,9 87,8 8,8 10,7 1,6 639,3 6,5 15,5 11,5 0,0
27.9.17 1025,6 1024,5 1025,0 12,8 84,1 10,0 12,8 1,8 639,3 8,2 19,8 15,1 0,0
28.9.17 1027,3 1025,3 1026,5 11,8 89,7 10,1 11,4 3,2 639,3 5,9 17,8 14,0 0,0
29.9.17 1026,8 1022,8 1024,9 13,4 87,4 11,2 13,1 2,6 639,3 10,0 19,4 16,2 0,0
30.9.17 1022,7 1017,0 1019,5 13,0 82,4 10,0 12,7 3,5 639,3 9,0 19,0 13,6 0,0
1.10.17 1023,3 1018,2 1021,5 11,2 88,9 9,4 11,1 1,9 641,6 7,6 13,5 13,5 2,3
2.10.17 1022,7 1015,0 1018,7 10,7 92,1 9,4 9,9 4,7 645,5 6,6 13,4 18,3 3,9
3.10.17 1024,7 1012,2 1017,4 10,7 91,1 9,2 10,4 2,8 668,1 8,8 14,0 17,6 22,6
4.10.17 1024,7 1018,8 1022,1 9,6 85,1 7,1 8,4 6,1 668,1 7,8 11,8 24,4 0,0
5.10.17 1019,0 1006,1 1011,4 9,9 84,0 7,3 7,1 11,0 671,8 7,3 13,6 31,6 3,7
6.10.17 1019,5 1013,3 1015,2 7,4 88,6 5,6 5,3 8,2 671,8 6,1 9,3 25,9 0,0
7.10.17 1021,5 1013,2 1018,6 7,8 89,3 6,1 6,4 6,5 677,5 6,8 9,1 20,8 5,7
8.10.17 1018,9 1011,5 1014,4 8,3 92,5 7,1 7,1 5,8 687,6 6,4 11,3 19,0 10,1
9.10.17 1019,9 1018,0 1019,0 6,8 86,8 4,5 6,4 2,7 687,6 3,5 10,5 16,5 0,0
10.10.17 1019,4 1016,3 1017,7 9,4 94,0 8,5 8,5 5,6 691,2 7,9 10,8 17,6 3,6
11.10.17 1020,2 1018,9 1019,5 11,6 89,8 9,9 11,1 4,0 691,2 10,4 13,3 16,2 0,0
12.10.17 1025,6 1017,8 1020,9 12,1 83,1 9,2 11,0 5,6 691,2 8,7 16,3 22,6 0,0
13.10.17 1028,3 1025,4 1026,8 10,7 87,7 8,7 10,4 2,1 691,2 6,6 15,9 23,4 0,0
14.10.17 1029,6 1027,9 1028,7 10,8 86,1 8,4 10,7 1,3 691,2 3,8 19,3 12,9 0,0
15.10.17 1029,4 1026,5 1027,9 12,4 81,5 9,0 12,3 1,6 691,2 5,1 21,8 14,4 0,0
16.10.17 1027,2 1026,4 1026,8 13,7 82,2 10,4 13,6 1,9 691,2 7,9 21,5 17,2 0,0
17.10.17 1026,8 1020,4 1024,0 13,8 78,1 9,5 13,6 1,6 691,2 7,2 23,9 11,1 0,0
18.10.17 1020,3 1015,6 1017,4 11,2 81,5 7,9 11,2 0,8 691,2 4,2 20,4 10,0 0,0
19.10.17 1017,4 1015,7 1016,4 11,0 78,1 6,9 10,9 1,8 691,2 2,8 20,3 13,3 0,0
20.10.17 1017,5 1015,2 1015,9 12,1 81,6 9,0 11,7 3,7 695,5 8,6 17,0 14,0 4,3
21.10.17 1017,9 1014,7 1016,6 10,6 87,8 8,6 10,4 1,9 698,2 5,9 14,9 20,1 2,7
22.10.17 1016,8 1014,2 1015,4 8,5 86,5 6,3 7,5 5,4 705,0 6,2 11,3 28,8 6,8
23.10.17 1021,7 1015,2 1018,1 6,8 92,2 5,6 6,2 4,1 711,2 5,9 8,3 14,4 6,2
24.10.17 1025,6 1021,8 1024,3 9,1 92,4 7,8 8,7 3,5 713,1 7,4 10,6 14,0 1,9
25.10.17 1025,2 1022,0 1023,4 11,8 92,8 10,6 11,4 3,3 713,1 10,6 14,4 16,5 0,0
26.10.17 1026,1 1021,9 1024,5 11,4 90,9 9,8 11,1 2,4 713,1 9,8 13,5 14,7 0,0
27.10.17 1025,8 1017,7 1021,3 8,6 89,2 6,9 7,5 5,8 722,9 7,2 9,9 21,9 9,8
28.10.17 1025,1 1007,5 1017,5 6,5 86,1 4,3 3,1 11,1 725,9 5,5 7,1 34,5 3,0
29.10.17 1015,0 996,0 1006,0 5,8 88,0 3,9 1,4 13,5 744,5 1,4 9,3 47,5 18,6
30.10.17 1024,9 1014,9 1020,3 4,1 81,9 1,1 2,4 6,7 746,7 1,9 8,0 25,9 2,2
31.10.17 1025,7 1023,8 1024,8 4,6 85,3 2,3 4,1 3,8 747,2 3,5 6,4 14,4 0,5
1.11.17 1023,8 1019,1 1021,8 5,0 89,8 3,5 4,7 2,8 747,8 3,3 6,9 11,8 0,6
2.11.17 1019,0 1012,2 1014,6 7,4 84,0 4,8 6,8 4,4 747,8 3,9 12,3 32,0 0,0
3.11.17 1018,7 1015,8 1017,2 6,0 83,9 3,3 6,0 0,5 747,8 0,6 11,9 9,3 0,0
4.11.17 1015,9 1010,8 1012,9 4,8 90,8 3,4 4,3 3,3 747,8 0,1 8,4 13,3 0,0
5.11.17 1013,4 1005,6 1008,8 6,2 91,6 4,9 5,3 5,3 764,0 4,1 9,9 16,9 16,2
6.11.17 1024,0 1013,3 1019,7 4,3 91,9 3,1 4,1 2,4 765,7 3,6 5,3 11,8 1,7
7.11.17 1023,6 1016,1 1020,0 5,4 90,3 3,9 4,3 5,3 765,7 4,1 6,6 25,2 0,0
8.11.17 1019,1 1014,9 1016,9 6,2 88,8 4,4 5,9 2,4 767,6 4,6 8,6 14,0 1,9
9.11.17 1022,3 1018,8 1020,8 5,6 93,5 4,6 5,5 0,8 773,2 5,0 6,6 8,6 5,6
10.11.17 1021,9 1011,4 1015,8 4,1 91,6 2,8 1,5 8,4 775,9 1,6 5,2 26,6 2,7
11.11.17 1013,4 1005,2 1009,5 2,9 92,5 1,8 1,4 5,8 778,4 1,6 3,9 20,5 2,5
12.11.17 1007,4 994,1 1002,2 0,5 94,0 -0,3 0,4 1,1 779,8 -1,1 3,4 11,8 1,4
13.11.17 1019,9 1002,9 1011,8 1,1 94,8 0,3 0,8 1,5 786,7 -1,1 3,2 11,5 6,9
14.11.17 1025,6 1019,6 1023,2 1,1 92,8 0,1 0,7 2,8 788,5 -1,8 3,9 16,9 1,8
15.11.17 1026,5 1024,9 1025,7 2,7 93,4 1,7 2,7 0,9 788,5 0,9 4,9 7,2 0,0
16.11.17 1025,3 1021,5 1023,0 3,6 91,4 2,3 3,1 3,0 788,5 1,5 5,9 18,3 0,0
17.11.17 1024,7 1022,0 1023,6 2,1 95,2 1,3 1,8 2,2 790,6 1,2 3,0 15,4 2,1
18.11.17 1022,9 1013,2 1018,0 2,0 90,5 0,5 0,2 6,0 790,6 0,7 2,7 25,2 0,0
19.11.17 1015,1 1010,4 1012,4 1,6 91,6 0,3 -1,1 8,5 792,9 0,3 2,5 27,7 2,3
20.11.17 1017,9 1012,5 1016,0 1,5 91,6 0,2 -0,7 7,3 793,7 0,4 2,4 23,4 0,8
21.11.17 1013,0 1011,2 1012,2 4,3 95,8 3,7 2,7 6,4 802,1 0,8 5,6 16,2 8,4
22.11.17 1012,6 1010,7 1011,7 5,3 91,3 3,9 4,1 5,6 802,1 2,9 8,2 20,5 0,0
23.11.17 1013,7 1009,2 1011,2 7,0 80,7 3,7 6,5 4,2 802,1 2,9 12,9 15,4 0,0
24.11.17 1013,5 1011,3 1012,7 9,3 80,0 6,0 8,8 3,8 802,3 5,6 13,3 14,7 0,2
25.11.17 1015,3 1006,1 1009,6 5,1 91,5 3,8 4,1 4,2 816,3 -0,4 8,8 20,5 14,0
26.11.17 1021,9 1015,4 1019,5 0,3 91,5 -0,8 -0,7 4,7 816,3 -0,7 1,0 18,3 0,0
27.11.17 1022,3 1010,3 1018,0 1,2 89,5 -0,3 -0,6 6,7 817,7 0,4 1,9 24,4 1,4
28.11.17 1010,2 1005,0 1006,6 1,8 93,2 0,8 1,1 3,7 823,1 0,4 3,1 23,7 5,4
29.11.17 1005,3 1004,2 1004,7 0,9 93,0 -0,1 0,9 0,5 823,1 -0,5 2,4 8,6 0,0
30.11.17 1005,6 1002,0 1003,3 -0,8 91,2 -2,0 -0,9 1,1 823,1 -2,1 0,6 14,4 0,0
1.12.17 1018,4 1005,7 1011,7 -1,3 90,6 -2,6 -1,3 0,2 823,1 -3,6 2,9 5,4 0,0
2.12.17 1024,1 1018,5 1022,3 -3,1 87,4 -4,8 -3,1 0,8 823,1 -6,9 -1,9 7,5 0,0
3.12.17 1023,7 1020,3 1021,8 -5,2 90,9 -6,4 -6,0 3,0 823,1 -9,5 -3,1 14,7 0,0
4.12.17 1028,1 1020,6 1023,1 -0,7 94,6 -1,4 -2,9 7,7 823,1 -3,1 0,7 20,5 0,0
5.12.17 1031,1 1028,1 1029,9 1,2 96,1 0,6 -0,7 6,9 830,9 0,6 1,6 24,1 7,8
6.12.17 1030,1 1026,0 1028,4 1,8 91,3 0,5 -0,2 7,0 833,4 1,3 2,1 19,4 2,5
7.12.17 1025,8 1008,5 1018,3 2,1 81,7 -0,7 0,8 5,2 833,4 -1,0 4,7 18,3 0,0
8.12.17 1008,6 1005,7 1007,1 1,5 88,8 -0,1 -0,8 7,7 841,5 -1,1 4,3 20,5 8,1
9.12.17 1010,4 1007,3 1009,0 -2,3 87,6 -4,0 -5,7 9,2 841,5 -3,1 -1,1 28,0 0,0
10.12.17 1009,2 984,2 994,9 -2,4 87,4 -4,2 -5,7 9,2 841,5 -4,4 3,2 47,8 0,0
11.12.17 989,1 982,8 985,9 3,4 93,4 2,4 1,7 6,5 844,7 2,1 4,6 29,5 3,2
12.12.17 1014,6 989,2 1003,1 1,7 86,1 -0,4 -0,8 7,9 845,9 -0,2 4,0 35,6 1,2
13.12.17 1015,2 994,2 1008,4 0,1 84,2 -2,2 -1,9 7,1 845,9 -1,1 2,1 36,3 0,0
14.12.17 996,9 991,2 994,1 1,7 87,5 -0,2 -1,3 9,2 855,7 0,6 2,7 50,0 9,8
15.12.17 999,8 990,9 995,5 0,7 93,1 -0,2 0,2 3,5 858,7 0,1 1,3 14,0 3,0
16.12.17 1012,9 999,9 1006,0 0,2 92,2 -0,8 -0,1 3,3 860,1 -0,4 1,6 12,9 1,4
17.12.17 1021,6 1012,8 1017,3 -0,4 92,4 -1,5 -1,1 4,0 860,1 -1,8 0,5 17,2 0,0
18.12.17 1026,5 1019,6 1022,3 -2,1 90,8 -3,3 -2,2 1,2 860,1 -6,9 -0,1 10,0 0,0
19.12.17 1030,0 1026,5 1028,9 -2,3 92,8 -3,3 -2,9 2,9 860,1 -7,1 -0,5 13,6 0,0
20.12.17 1031,6 1029,4 1030,6 0,3 95,2 -0,4 0,2 1,3 860,9 -0,5 1,6 9,7 0,8
21.12.17 1031,7 1028,6 1030,2 1,6 96,6 1,0 0,9 3,7 878,8 0,4 2,7 14,4 17,9
22.12.17 1032,4 1029,4 1030,7 2,9 97,0 2,4 2,9 1,1 880,9 1,3 4,6 7,9 2,1
23.12.17 1032,1 1026,5 1028,7 3,7 94,8 3,0 0,9 8,6 880,9 0,2 5,9 27,0 0,0
24.12.17 1026,4 1022,1 1024,0 4,6 94,5 3,7 1,6 9,9 880,9 3,9 5,3 34,9 0,0
25.12.17 1022,2 1011,5 1017,9 1,9 94,9 1,2 0,7 5,3 881,1 -0,9 3,9 24,4 0,2
26.12.17 1011,6 1001,0 1005,6 1,6 89,1 -0,1 -0,5 7,5 883,6 -1,6 7,2 27,3 2,5
27.12.17 1001,0 986,5 990,7 0,5 89,6 -0,9 -1,3 6,4 883,6 -0,8 3,3 25,5 0,0
28.12.17 1004,0 987,1 994,1 -0,1 92,8 -1,1 -0,4 2,4 884,2 -2,2 0,9 16,5 0,6
29.12.17 1008,8 1002,0 1005,7 -1,9 88,7 -3,5 -4,2 7,3 884,2 -3,0 -0,2 25,9 0,0
30.12.17 1005,4 1000,2 1003,4 1,6 93,0 0,6 0,5 5,0 891,1 -2,2 6,7 16,9 6,9
31.12.17 1009,0 1004,2 1006,6 8,2 91,1 6,8 7,0 6,2 894,9 6,6 9,9 24,1 3,8